KBCE

Bryce Canyon Airport

Bryce Canyon, Utah, USA
KBCE 141720Z 1418/1518 16005KT P6SM SCT200 FM150300 27005KT P6SM BKN150 FM150800 27005KT P6SM BKN070 FM151200 22006KT P6SM SCT200
Issued Valid From Valid To
Dec-14 @ 17:20 UTC
(4 hours ago)
Dec-14 @ 18:00 UTC
(4 hours ago)
Dec-15 @ 18:00 UTC
(in 20 hours)
Dec-14 @ 18:00 to Dec-15 @ 03:00
KBCE 141720Z 1418/1518 16005KT P6SM SCT200
Wind Visibility Clouds
160° at 5 knots Greater than 6 miles
  • Scattered at 20,000' AGL
From Dec-15 @ 03:00 to Dec-15 @ 08:00
FM150300 27005KT P6SM BKN150
Wind Visibility Clouds
270° at 5 knots Greater than 6 miles
  • Broken at 15,000' AGL
From Dec-15 @ 08:00 to Dec-15 @ 12:00
FM150800 27005KT P6SM BKN070
Wind Visibility Clouds
270° at 5 knots Greater than 6 miles
  • Broken at 7,000' AGL
From Dec-15 @ 12:00 to Dec-15 @ 18:00
FM151200 22006KT P6SM SCT200
Wind Visibility Clouds
220° at 6 knots Greater than 6 miles
  • Scattered at 20,000' AGL
KBCE 141720Z 1418/1518 16005KT P6SM SCT200 FM150300 27005KT P6SM BKN150 FM150800 27005KT P6SM BKN070 FM151200 22006KT P6SM SCT200
Issued Dec-14 @ 17:20 UTC
(4 hours ago)
Valid From Dec-14 @ 18:00 UTC
(4 hours ago)
Valid To Dec-15 @ 18:00 UTC
(in 20 hours)
Dec-14 @ 18:00 - Dec-15 @ 03:00
Wind Visibility
160° at 5 knots Greater than 6 miles
Clouds
  • Scattered at 20,000' AGL
From Dec-15 @ 03:00 - Dec-15 @ 08:00
Wind Visibility
270° at 5 knots Greater than 6 miles
Clouds
  • Broken at 15,000' AGL
From Dec-15 @ 08:00 - Dec-15 @ 12:00
Wind Visibility
270° at 5 knots Greater than 6 miles
Clouds
  • Broken at 7,000' AGL
From Dec-15 @ 12:00 - Dec-15 @ 18:00
Wind Visibility
220° at 6 knots Greater than 6 miles
Clouds
  • Scattered at 20,000' AGL